Time;durP1;ratioP1;P1;durP2;ratioP2;P2;SDS_P1;SDS_P2;PMS_P1;PMS_P2;Temp;Humidity;BMP_temperature;BMP_pressure;BME280_temperature;BME280_humidity;BME280_pressure;Samples;Min_cycle;Max_cycle;Signal;HPM_P1;HPM_P2
2022/01/26 00:06:52;;;;;;;14.57;8.40;;;;;;;-2.56;59.41;100377.75;5092499;28;20259;-55
2022/01/26 00:09:19;;;;;;;16.03;8.67;;;;;;;-2.53;59.48;100372.78;5092323;28;20712;-58
2022/01/26 00:11:46;;;;;;;21.27;8.80;;;;;;;-2.62;59.55;100380.06;5092248;28;20695;-58
2022/01/26 00:14:13;;;;;;;19.30;9.23;;;;;;;-2.55;59.42;100379.47;5092067;28;20200;-55
2022/01/26 00:16:42;;;;;;;16.00;8.90;;;;;;;-2.49;58.37;100384.81;5092076;28;20287;-57
2022/01/26 00:19:14;;;;;;;17.27;8.70;;;;;;;-2.48;58.28;100381.44;5092132;28;20590;-55
2022/01/26 00:21:43;;;;;;;17.87;8.70;;;;;;;-2.52;58.54;100377.06;5091930;28;20213;-55
2022/01/26 00:24:37;;;;;;;26.03;9.23;;;;;;;-2.49;58.18;100369.56;5091946;28;20237;-54
2022/01/26 00:27:23;;;;;;;17.30;9.20;;;;;;;-2.47;57.94;100373.00;5092070;28;20206;-54
2022/01/26 00:30:00;;;;;;;18.33;8.53;;;;;;;-2.48;58.05;100373.81;5091842;28;20206;-55
2022/01/26 00:40:51;;;;;;;17.57;8.90;;;;;;;-2.40;56.57;100369.88;5091737;28;20195;-57
2022/01/26 00:43:22;;;;;;;12.97;7.80;;;;;;;-2.25;55.88;100372.97;5091470;28;20238;-54
2022/01/26 00:45:55;;;;;;;14.70;8.17;;;;;;;-2.30;56.33;100361.78;5091631;28;20209;-55
2022/01/26 00:48:22;;;;;;;13.40;8.17;;;;;;;-2.35;55.73;100353.09;5091631;28;20222;-57
2022/01/26 00:50:52;;;;;;;12.43;7.23;;;;;;;-2.37;56.13;100361.50;5091496;28;20195;-55
2022/01/26 00:53:20;;;;;;;11.50;7.27;;;;;;;-2.35;56.64;100353.09;5091331;28;20202;-55
2022/01/26 00:55:48;;;;;;;12.60;7.93;;;;;;;-2.41;57.09;100350.34;5091190;28;20718;-55
2022/01/26 00:58:15;;;;;;;14.27;8.03;;;;;;;-2.25;56.50;100344.13;5091356;28;20714;-57
2022/01/26 01:00:43;;;;;;;14.10;8.30;;;;;;;-2.39;56.72;100348.75;5091039;28;20203;-54
2022/01/26 01:03:10;;;;;;;15.30;8.20;;;;;;;-2.43;56.84;100341.81;5091364;28;20277;-57
2022/01/26 01:05:42;;;;;;;12.87;8.00;;;;;;;-2.35;57.30;100348.03;5091295;28;20616;-58
2022/01/26 01:08:14;;;;;;;13.47;7.87;;;;;;;-2.44;57.17;100337.53;5091130;28;20695;-58
2022/01/26 01:10:44;;;;;;;15.43;8.33;;;;;;;-2.59;57.38;100337.81;5091119;28;20199;-55
2022/01/26 01:13:16;;;;;;;14.90;8.53;;;;;;;-2.59;57.19;100334.41;5091228;28;20577;-55
2022/01/26 01:15:44;;;;;;;14.77;8.30;;;;;;;-2.43;56.86;100334.19;5091022;28;20199;-54
2022/01/26 01:18:18;;;;;;;15.67;8.37;;;;;;;-2.57;57.07;100331.13;5090914;28;20199;-55
2022/01/26 01:29:16;;;;;;;13.63;7.47;;;;;;;-2.39;56.49;100308.06;5085248;28;20191;-55
2022/01/26 01:31:47;;;;;;;11.27;7.17;;;;;;;-2.55;56.36;100308.31;5091027;28;20221;-55
2022/01/26 01:34:15;;;;;;;12.87;7.87;;;;;;;-2.54;56.48;100310.06;5090740;28;20192;-57
2022/01/26 01:36:45;;;;;;;18.33;8.53;;;;;;;-2.67;56.85;100312.94;5090772;28;20692;-58
2022/01/26 01:39:14;;;;;;;13.67;7.97;;;;;;;-2.72;57.33;100311.94;5090890;28;20213;-54
2022/01/26 01:41:43;;;;;;;14.93;8.20;;;;;;;-2.75;57.15;100299.09;5090572;28;20206;-54
2022/01/26 01:44:12;;;;;;;14.00;8.30;;;;;;;-2.75;56.23;100288.94;5090389;28;20253;-53
2022/01/26 01:46:41;;;;;;;13.40;7.73;;;;;;;-2.69;56.10;100309.47;5090703;28;20277;-56
2022/01/26 01:49:10;;;;;;;13.00;7.90;;;;;;;-2.62;55.82;100303.84;5090828;28;20683;-56
2022/01/26 01:51:40;;;;;;;15.63;8.20;;;;;;;-2.86;55.76;100306.34;5090473;28;20201;-54
2022/01/26 01:54:12;;;;;;;12.87;7.83;;;;;;;-2.84;56.02;100308.94;5090295;28;20231;-54
2022/01/26 01:56:41;;;;;;;15.93;7.63;;;;;;;-2.69;55.33;100297.66;5090358;28;20203;-58
2022/01/26 01:59:08;;;;;;;12.53;7.30;;;;;;;-2.65;54.99;100303.72;5090352;28;20278;-57
2022/01/26 02:01:36;;;;;;;10.67;6.83;;;;;;;-2.59;54.84;100291.22;5090307;28;20205;-58
2022/01/26 02:04:03;;;;;;;12.67;7.27;;;;;;;-2.48;54.69;100289.09;5090239;28;20226;-57
2022/01/26 02:06:30;;;;;;;12.27;7.57;;;;;;;-2.46;54.45;100295.94;5090267;28;20337;-54
2022/01/26 02:08:57;;;;;;;12.73;7.63;;;;;;;-2.58;54.71;100292.94;5089920;28;20203;-55
2022/01/26 02:11:24;;;;;;;12.37;6.90;;;;;;;-2.52;54.56;100282.16;5090136;28;20202;-55
2022/01/26 02:13:59;;;;;;;11.70;7.30;;;;;;;-2.53;54.84;100286.38;5090364;28;20282;-55
2022/01/26 02:16:31;;;;;;;9.27;6.60;;;;;;;-2.45;54.25;100287.50;5090129;28;20673;-57
2022/01/26 02:19:44;;;;;;;11.87;7.37;;;;;;;-2.40;53.84;100290.22;5090068;28;20199;-55
2022/01/26 02:52:49;;;;;;;10.37;6.33;;;;;;;-2.45;54.05;100246.84;5079279;28;20234;-54
2022/01/26 02:55:32;;;;;;;12.40;6.67;;;;;;;-2.32;53.81;100260.84;5089636;28;20283;-54
2022/01/26 02:58:37;;;;;;;11.00;6.37;;;;;;;-2.22;53.69;100261.19;5089949;28;20268;-57
2022/01/26 03:01:18;;;;;;;10.70;6.60;;;;;;;-2.22;54.04;100261.19;5089512;28;20695;-55
2022/01/26 03:03:53;;;;;;;11.87;6.50;;;;;;;-2.18;53.60;100258.78;5089939;28;20222;-58
2022/01/26 03:06:27;;;;;;;10.40;6.20;;;;;;;-2.18;53.87;100259.63;5089936;28;20592;-56
2022/01/26 03:09:00;;;;;;;10.20;6.20;;;;;;;-2.23;53.82;100250.97;5089304;28;20191;-57
2022/01/26 03:11:31;;;;;;;9.60;6.17;;;;;;;-2.20;54.00;100249.41;5089583;28;20195;-57
2022/01/26 03:14:06;;;;;;;11.10;6.93;;;;;;;-2.21;54.39;100250.22;5089587;28;20191;-57
2022/01/26 03:16:39;;;;;;;11.10;6.97;;;;;;;-2.10;54.31;100242.94;5089678;28;20696;-57
2022/01/26 03:19:17;;;;;;;11.17;6.57;;;;;;;-2.16;54.45;100232.59;5089676;28;20200;-55
2022/01/26 03:21:53;;;;;;;11.57;7.03;;;;;;;-2.07;54.36;100240.50;5090513;28;20198;-55
2022/01/26 03:30:20;;;;;;;13.70;8.57;;;;;;;-1.99;54.40;100230.59;5092914;28;20196;-55
2022/01/26 03:33:11;;;;;;;12.17;7.57;;;;;;;-2.03;54.52;100229.59;5093177;28;20589;-55
2022/01/26 03:35:47;;;;;;;10.80;7.63;;;;;;;-1.93;53.43;100223.16;5093117;28;20660;-55
2022/01/26 03:38:21;;;;;;;10.83;7.17;;;;;;;-1.85;53.75;100224.25;5092773;28;20244;-55
2022/01/26 03:40:57;;;;;;;8.43;6.47;;;;;;;-1.98;53.75;100220.47;5092734;28;20198;-54
2022/01/26 03:43:25;;;;;;;11.33;6.80;;;;;;;-1.87;53.77;100226.75;5092995;28;20219;-55
2022/01/26 03:45:52;;;;;;;10.20;6.40;;;;;;;-1.87;53.89;100225.88;5092883;28;20522;-55
2022/01/26 03:48:19;;;;;;;11.40;6.83;;;;;;;-1.90;53.99;100215.59;5092558;28;20201;-56
2022/01/26 03:50:46;;;;;;;11.87;7.00;;;;;;;-2.02;55.06;100220.28;5092576;28;20282;-55
2022/01/26 03:53:13;;;;;;;12.83;7.60;;;;;;;-1.94;55.31;100218.88;5092511;28;20205;-58
2022/01/26 03:55:40;;;;;;;13.97;7.77;;;;;;;-1.81;55.09;100220.16;5092670;28;20322;-58
2022/01/26 03:58:07;;;;;;;11.97;7.60;;;;;;;-1.76;54.91;100214.38;5092880;28;20199;-58
2022/01/26 04:00:36;;;;;;;11.67;7.20;;;;;;;-2.01;55.40;100211.84;5089858;28;20194;-55
2022/01/26 04:03:03;;;;;;;12.53;7.43;;;;;;;-1.97;55.71;100213.69;5075607;28;20560;-54
2022/01/26 04:05:30;;;;;;;13.63;7.77;;;;;;;-1.95;56.35;100217.16;5085430;28;20289;-54
2022/01/26 04:08:03;;;;;;;12.10;7.57;;;;;;;-1.84;56.45;100216.69;5086774;28;20739;-57
2022/01/26 04:10:33;;;;;;;13.93;7.57;;;;;;;-1.81;56.27;100223.56;5088541;28;20669;-55
2022/01/26 04:13:00;;;;;;;14.57;7.70;;;;;;;-1.80;56.45;100216.75;5090988;28;20195;-57
2022/01/26 04:15:31;;;;;;;16.90;7.53;;;;;;;-1.69;55.34;100210.38;5090591;28;20282;-57
2022/01/26 04:18:00;;;;;;;13.70;8.20;;;;;;;-1.66;55.12;100208.75;5090807;28;20202;-57
2022/01/26 04:20:31;;;;;;;13.97;8.07;;;;;;;-1.74;54.78;100210.22;5088609;28;20219;-55
2022/01/26 04:23:09;;;;;;;10.60;7.00;;;;;;;-1.76;54.76;100204.19;5085288;28;20223;-55
2022/01/26 04:25:37;;;;;;;12.47;7.47;;;;;;;-1.66;54.32;100210.44;5089137;28;20683;-56
2022/01/26 04:28:08;;;;;;;11.97;7.00;;;;;;;-1.70;54.39;100206.94;5090090;28;20195;-55
2022/01/26 04:30:35;;;;;;;14.53;8.23;;;;;;;-1.69;53.93;100206.09;5091419;28;20214;-55
2022/01/26 04:33:05;;;;;;;8.47;6.23;;;;;;;-1.59;53.82;100213.25;5089801;28;20278;-58
2022/01/26 04:35:32;;;;;;;12.47;7.27;;;;;;;-1.57;53.23;100206.47;5087699;28;20673;-55
2022/01/26 04:38:14;;;;;;;11.27;7.40;;;;;;;-1.55;53.10;100206.53;5090572;28;20286;-56
2022/01/26 04:40:49;;;;;;;12.00;7.20;;;;;;;-1.54;53.04;100210.81;5089547;28;20195;-55
2022/01/26 04:43:20;;;;;;;12.10;7.27;;;;;;;-1.59;53.00;100215.78;5088601;28;20738;-56
2022/01/26 04:45:47;;;;;;;16.40;7.70;;;;;;;-1.57;53.17;100216.66;5090408;28;20629;-55
2022/01/26 04:48:15;;;;;;;10.90;7.87;;;;;;;-1.53;53.69;100207.44;5090360;28;20195;-54
2022/01/26 04:50:42;;;;;;;13.37;7.60;;;;;;;-1.52;53.13;100210.03;5090417;28;20225;-54
2022/01/26 04:53:09;;;;;;;13.50;7.90;;;;;;;-1.38;55.44;100207.94;5089699;28;20286;-54
2022/01/26 04:55:36;;;;;;;10.87;7.30;;;;;;;-1.44;54.00;100192.44;5089791;28;20318;-53
2022/01/26 04:58:03;;;;;;;15.00;8.33;;;;;;;-1.31;53.64;100206.41;5090529;28;20205;-54
2022/01/26 05:00:30;;;;;;;11.27;7.03;;;;;;;-1.32;53.12;100202.13;5089905;28;20738;-56
2022/01/26 05:02:57;;;;;;;14.83;8.40;;;;;;;-1.39;53.46;100192.59;5089881;28;20184;-53
2022/01/26 05:05:26;;;;;;;14.67;7.77;;;;;;;-1.42;53.03;100195.03;5089800;28;20743;-57
2022/01/26 05:07:53;;;;;;;8.40;7.37;;;;;;;-1.38;52.87;100205.38;5089560;28;20192;-56
2022/01/26 05:10:20;;;;;;;15.83;7.17;;;;;;;-1.36;52.31;100207.97;5089953;28;20191;-53
2022/01/26 05:12:47;;;;;;;10.80;7.03;;;;;;;-1.32;52.00;100203.00;5089482;28;20289;-54
2022/01/26 05:15:14;;;;;;;11.73;7.37;;;;;;;-1.41;52.58;100212.06;5090215;28;20231;-54
2022/01/26 05:17:42;;;;;;;13.60;7.40;;;;;;;-1.42;52.89;100212.88;5090227;28;20260;-55
2022/01/26 05:20:10;;;;;;;10.73;6.40;;;;;;;-1.52;52.57;100197.31;5092038;28;20206;-55
2022/01/26 05:22:40;;;;;;;9.57;6.40;;;;;;;-1.44;53.02;100219.59;5102479;28;20210;-56
2022/01/26 05:25:08;;;;;;;11.33;6.67;;;;;;;-1.39;53.23;100210.41;5090839;28;20223;-55
2022/01/26 05:27:35;;;;;;;10.63;6.77;;;;;;;-1.38;53.37;100209.59;5090942;28;20191;-55
2022/01/26 05:30:02;;;;;;;7.20;6.17;;;;;;;-1.35;53.11;100205.44;5090717;28;20199;-55
2022/01/26 05:32:29;;;;;;;11.17;7.20;;;;;;;-1.27;53.70;100195.50;5090742;28;20290;-55
2022/01/26 05:34:56;;;;;;;13.03;6.87;;;;;;;-1.27;54.07;100195.50;5090607;28;20191;-54
2022/01/26 05:37:23;;;;;;;9.60;6.73;;;;;;;-1.36;54.86;100202.88;5090544;28;20207;-56
2022/01/26 05:39:52;;;;;;;14.10;7.87;;;;;;;-1.36;54.96;100205.44;5090851;28;20199;-56
2022/01/26 05:42:19;;;;;;;15.77;8.30;;;;;;;-1.47;55.36;100187.28;5090408;28;20195;-55
2022/01/26 05:44:46;;;;;;;13.93;8.03;;;;;;;-1.44;54.92;100189.03;5089831;28;20322;-54
2022/01/26 05:47:17;;;;;;;11.60;7.53;;;;;;;-1.32;54.81;100204.69;5090627;28;20280;-54
2022/01/26 05:49:44;;;;;;;16.53;8.13;;;;;;;-1.40;54.81;100189.19;5090530;28;20202;-56
2022/01/26 05:52:11;;;;;;;16.83;8.83;;;;;;;-1.38;54.89;100197.75;5090307;28;20669;-55
2022/01/26 05:54:38;;;;;;;17.17;9.20;;;;;;;-1.43;54.48;100178.91;5069682;28;20239;-54
2022/01/26 05:57:07;;;;;;;12.27;8.10;;;;;;;-1.46;55.00;100205.13;5070433;28;20584;-55
2022/01/26 05:59:34;;;;;;;13.23;8.07;;;;;;;-1.37;54.54;100206.25;5069908;28;20212;-56
2022/01/26 06:02:01;;;;;;;17.57;7.63;;;;;;;-1.37;54.32;100211.34;5069348;28;20228;-56
2022/01/26 06:04:29;;;;;;;14.40;7.73;;;;;;;-1.46;54.67;100210.22;5069163;28;20266;-56
2022/01/26 06:06:57;;;;;;;10.23;7.93;;;;;;;-1.41;54.93;100217.16;5069460;28;20226;-57
2022/01/26 06:09:24;;;;;;;13.40;7.70;;;;;;;-1.50;54.44;100212.66;5069078;28;20303;-57
2022/01/26 06:11:51;;;;;;;10.57;6.87;;;;;;;-1.42;54.79;100210.31;5068981;28;20675;-57
2022/01/26 06:14:19;;;;;;;12.93;7.53;;;;;;;-1.44;54.75;100201.78;5083233;28;20303;-56
2022/01/26 06:16:46;;;;;;;10.97;7.17;;;;;;;-1.31;54.49;100220.00;5089671;28;20221;-56
2022/01/26 06:19:13;;;;;;;11.50;7.50;;;;;;;-1.32;54.88;100218.28;5089443;28;20223;-55
2022/01/26 06:21:40;;;;;;;11.57;7.73;;;;;;;-1.20;54.37;100226.28;5089920;28;20231;-56
2022/01/26 06:24:07;;;;;;;14.20;8.47;;;;;;;-1.06;54.74;100224.16;5085617;28;20233;-56
2022/01/26 06:26:34;;;;;;;13.33;8.63;;;;;;;-0.95;53.85;100221.91;5076202;28;20243;-57
2022/01/26 06:29:01;;;;;;;13.67;8.97;;;;;;;-0.89;54.16;100225.47;5084138;28;20302;-57
2022/01/26 06:31:30;;;;;;;15.87;8.73;;;;;;;-0.85;53.43;100229.00;5081294;28;20760;-56
2022/01/26 06:33:58;;;;;;;15.07;8.07;;;;;;;-0.69;53.43;100222.63;5069550;28;20288;-57
2022/01/26 06:36:24;;;;;;;14.63;8.00;;;;;;;-0.54;53.67;100229.00;5067499;28;20227;-57
2022/01/26 06:38:51;;;;;;;15.90;8.60;;;;;;;-0.41;52.27;100215.75;5077897;28;20223;-57
2022/01/26 06:41:23;;;;;;;14.40;7.70;;;;;;;-0.40;52.56;100235.34;5084361;28;20642;-56
2022/01/26 06:43:57;;;;;;;14.73;7.13;;;;;;;-0.54;52.31;100208.59;5067559;28;20300;-56
2022/01/26 06:46:30;;;;;;;13.20;7.93;;;;;;;-0.30;51.82;100223.69;5081041;28;20219;-56
2022/01/26 06:49:28;;;;;;;9.50;7.40;;;;;;;-0.19;51.69;100236.72;5074036;28;20310;-57
2022/01/26 06:51:50;;;;;;;10.90;6.93;;;;;;;-0.16;51.79;100234.25;5087075;28;20221;-57
2022/01/26 06:54:17;;;;;;;13.70;6.73;;;;;;;-0.11;51.70;100240.31;5083694;28;20232;-55
2022/01/26 06:56:45;;;;;;;10.70;6.73;;;;;;;-0.10;52.32;100237.81;5083321;28;20222;-57
2022/01/26 06:59:12;;;;;;;14.53;7.43;;;;;;;-0.04;52.51;100235.44;5081772;28;20222;-57
2022/01/26 07:01:40;;;;;;;13.97;7.63;;;;;;;0.00;53.04;100238.94;5081765;28;20218;-56
2022/01/26 07:04:08;;;;;;;12.87;7.80;;;;;;;0.04;53.50;100250.06;5081560;28;20227;-57
2022/01/26 07:06:35;;;;;;;10.67;7.77;;;;;;;0.09;53.20;100246.81;5088264;28;20592;-58
2022/01/26 07:09:02;;;;;;;12.70;7.93;;;;;;;0.15;53.62;100238.44;5093110;28;20740;-58
2022/01/26 07:11:29;;;;;;;14.30;8.77;;;;;;;0.15;53.81;100246.09;5092752;28;20699;-57
2022/01/26 07:13:59;;;;;;;13.83;9.17;;;;;;;0.19;54.37;100240.25;5091909;28;20301;-56
2022/01/26 07:21:56;;;;;;;18.33;10.07;;;;;;;0.16;54.38;100240.16;5086070;28;20691;-57
2022/01/26 07:24:23;;;;;;;21.57;9.40;;;;;;;0.35;53.48;100239.75;5081295;28;20247;-57
2022/01/26 07:26:53;;;;;;;16.60;8.67;;;;;;;0.36;54.01;100228.72;5093119;28;20623;-57
2022/01/26 07:29:23;;;;;;;12.37;8.30;;;;;;;0.27;54.46;100221.72;5093159;28;20198;-58
2022/01/26 07:31:51;;;;;;;15.23;8.47;;;;;;;0.27;54.80;100237.03;5093083;28;20208;-57
2022/01/26 07:34:22;;;;;;;14.53;8.70;;;;;;;0.26;54.61;100242.09;5093154;28;20193;-55
2022/01/26 07:36:52;;;;;;;18.07;8.77;;;;;;;0.31;54.48;100222.66;5089782;28;20188;-55
2022/01/26 07:39:30;;;;;;;13.20;7.93;;;;;;;0.43;53.75;100230.63;5072777;28;20206;-55
2022/01/26 07:41:58;;;;;;;18.47;8.73;;;;;;;0.36;55.31;100227.03;5072626;28;20719;-54
2022/01/26 07:44:25;;;;;;;50.40;10.37;;;;;;;0.48;55.26;100234.13;5072275;28;20261;-54
2022/01/26 07:46:52;;;;;;;22.60;8.23;;;;;;;0.57;54.90;100226.66;5072456;28;20195;-56
2022/01/26 07:49:20;;;;;;;29.87;8.43;;;;;;;0.60;54.54;100229.28;5072624;28;20195;-54
2022/01/26 07:51:50;;;;;;;20.97;8.70;;;;;;;0.63;55.14;100220.84;5087791;28;20279;-54
2022/01/26 07:54:18;;;;;;;23.57;7.77;;;;;;;0.61;55.17;100232.72;5092157;28;20226;-54
2022/01/26 07:56:46;;;;;;;25.03;9.10;;;;;;;0.54;54.67;100226.63;5092150;28;20205;-54
2022/01/26 07:59:13;;;;;;;24.43;10.10;;;;;;;0.52;55.51;100214.63;5075843;28;20286;-53
2022/01/26 08:01:40;;;;;;;16.30;8.33;;;;;;;0.65;55.35;100222.59;5087620;28;20422;-56
2022/01/26 08:04:07;;;;;;;29.00;9.20;;;;;;;0.79;55.04;100224.59;5088228;28;20227;-53
2022/01/26 08:06:35;;;;;;;22.57;8.67;;;;;;;0.88;54.72;100229.91;5071515;28;20286;-54
2022/01/26 08:09:02;;;;;;;13.77;8.20;;;;;;;0.88;54.91;100223.09;5071358;28;20267;-54
2022/01/26 08:11:29;;;;;;;12.90;8.27;;;;;;;0.94;54.30;100222.34;5071813;28;20749;-55
2022/01/26 08:13:58;;;;;;;18.37;8.80;;;;;;;0.86;55.73;100222.22;5071568;28;20199;-56
2022/01/26 08:16:25;;;;;;;18.30;9.90;;;;;;;0.75;55.76;100217.69;5072004;28;20665;-55
2022/01/26 08:18:52;;;;;;;20.17;10.17;;;;;;;0.81;56.19;100215.25;5071655;28;20219;-55
2022/01/26 08:21:19;;;;;;;19.77;10.60;;;;;;;0.93;56.54;100207.84;5070692;28;20234;-55
2022/01/26 08:23:48;;;;;;;20.17;10.40;;;;;;;0.91;56.19;100194.16;5070557;28;20318;-54
2022/01/26 08:26:19;;;;;;;17.63;10.50;;;;;;;1.02;55.52;100214.00;5070556;28;20215;-55
2022/01/26 08:28:52;;;;;;;14.87;9.93;;;;;;;1.10;55.77;100221.84;5083055;28;20223;-55
2022/01/26 08:31:19;;;;;;;13.30;9.97;;;;;;;1.13;55.83;100219.34;5091608;28;20540;-55
2022/01/26 08:33:46;;;;;;;16.87;10.33;;;;;;;1.26;55.51;100213.66;5091571;28;20195;-55
2022/01/26 08:36:13;;;;;;;19.37;10.33;;;;;;;1.26;56.60;100223.00;5091278;28;20283;-56
2022/01/26 08:38:40;;;;;;;17.93;10.13;;;;;;;1.22;56.85;100217.00;5081126;28;20219;-55
2022/01/26 08:41:10;;;;;;;21.13;10.90;;;;;;;1.10;57.30;100216.75;5070186;28;20311;-54
2022/01/26 08:43:37;;;;;;;21.50;10.90;;;;;;;1.26;56.64;100218.75;5070066;28;20254;-54
2022/01/26 08:46:04;;;;;;;25.40;12.70;;;;;;;1.36;56.57;100214.69;5079056;28;20223;-54
2022/01/26 08:48:30;;;;;;;24.43;12.93;;;;;;;1.45;56.75;100220.88;5081341;28;20219;-54
2022/01/26 08:50:57;;;;;;;24.80;11.63;;;;;;;1.52;56.77;100210.72;5085285;28;20294;-55
2022/01/26 08:53:24;;;;;;;20.83;9.90;;;;;;;1.36;56.24;100184.84;5077491;28;20302;-55
2022/01/26 08:55:52;;;;;;;17.10;9.97;;;;;;;1.53;56.29;100208.22;5076118;28;20227;-55
2022/01/26 08:58:21;;;;;;;16.67;9.70;;;;;;;1.61;55.94;100204.09;5091094;28;20248;-55
2022/01/26 09:00:48;;;;;;;15.53;9.23;;;;;;;1.52;56.10;100185.16;5090930;28;20195;-55
2022/01/26 09:03:15;;;;;;;16.97;9.87;;;;;;;1.64;56.60;100213.50;5090560;28;20192;-55
2022/01/26 09:05:42;;;;;;;14.90;10.00;;;;;;;1.67;57.53;100216.13;5082802;28;20342;-55
2022/01/26 09:08:09;;;;;;;23.00;11.33;;;;;;;1.61;56.49;100219.44;5073331;28;20202;-54
2022/01/26 09:10:38;;;;;;;19.53;10.43;;;;;;;1.71;56.27;100223.00;5080497;28;20274;-55
2022/01/26 09:13:05;;;;;;;16.17;9.80;;;;;;;1.80;55.83;100212.97;5075872;28;20207;-55
2022/01/26 09:15:34;;;;;;;17.03;10.67;;;;;;;1.78;56.55;100206.97;5080750;28;20188;-55
2022/01/26 09:18:04;;;;;;;16.93;10.60;;;;;;;1.79;56.18;100211.25;5079315;28;20191;-55
2022/01/26 09:20:34;;;;;;;15.77;10.40;;;;;;;1.87;56.44;100216.47;5078071;28;20587;-54
2022/01/26 09:23:02;;;;;;;16.57;10.47;;;;;;;1.94;56.13;100216.59;5090714;28;20199;-55
2022/01/26 09:25:28;;;;;;;18.40;10.60;;;;;;;1.94;55.89;100215.75;5090538;28;20221;-55
2022/01/26 09:27:56;;;;;;;16.80;9.73;;;;;;;1.75;56.37;100204.34;5090787;28;20196;-54
2022/01/26 09:30:24;;;;;;;19.80;9.83;;;;;;;1.69;56.28;100204.25;5090581;28;20700;-56
2022/01/26 09:32:52;;;;;;;11.93;8.63;;;;;;;1.84;56.63;100196.81;5090368;28;20195;-56
2022/01/26 09:35:19;;;;;;;13.77;8.47;;;;;;;1.78;56.53;100206.97;5090548;28;20205;-56
2022/01/26 09:37:46;;;;;;;15.67;8.23;;;;;;;1.92;56.50;100194.41;5090624;28;20294;-57
2022/01/26 09:40:13;;;;;;;14.70;8.57;;;;;;;2.00;56.81;100180.03;5090463;28;20204;-57
2022/01/26 09:42:41;;;;;;;12.23;8.60;;;;;;;1.94;56.83;100180.75;5090160;28;20206;-57
2022/01/26 09:45:10;;;;;;;16.23;8.70;;;;;;;1.91;57.87;100190.97;5090368;28;20219;-55
2022/01/26 09:47:37;;;;;;;16.40;8.77;;;;;;;1.90;57.61;100186.69;5090024;28;20198;-59
2022/01/26 09:50:06;;;;;;;16.23;8.77;;;;;;;2.01;57.50;100181.75;5090105;28;20195;-55
2022/01/26 09:52:38;;;;;;;15.83;8.20;;;;;;;2.10;57.27;100190.44;5089883;28;20191;-55
2022/01/26 09:55:07;;;;;;;12.77;8.33;;;;;;;2.08;58.27;100186.97;5090053;28;20231;-55
2022/01/26 09:57:38;;;;;;;13.10;8.67;;;;;;;2.05;58.26;100176.69;5090090;28;20286;-55
2022/01/26 10:00:07;;;;;;;14.23;9.37;;;;;;;2.23;58.27;100176.13;5090481;28;20665;-54
2022/01/26 10:02:36;;;;;;;18.13;8.57;;;;;;;2.35;57.83;100172.88;5090344;28;20205;-56
2022/01/26 10:05:06;;;;;;;15.83;8.93;;;;;;;2.35;58.23;100184.00;5090110;28;20223;-56
2022/01/26 10:07:48;;;;;;;12.67;9.03;;;;;;;2.23;58.13;100178.69;5090185;28;20200;-57
2022/01/26 10:16:08;;;;;;;14.93;9.47;;;;;;;2.28;58.22;100145.44;5069340;28;20240;-55
2022/01/26 10:18:35;;;;;;;14.50;8.80;;;;;;;2.33;59.28;100160.06;5083984;28;20209;-55
2022/01/26 10:21:04;;;;;;;13.13;8.60;;;;;;;2.56;58.33;100155.25;5089847;28;20288;-55
2022/01/26 10:23:37;;;;;;;19.07;11.77;;;;;;;2.74;59.00;100158.03;5090002;28;20250;-55
2022/01/26 10:26:06;;;;;;;14.00;9.27;;;;;;;2.81;58.22;100153.88;5090129;28;20728;-56
2022/01/26 10:28:47;;;;;;;14.20;9.60;;;;;;;2.85;58.79;100148.78;5090066;28;20193;-55
2022/01/26 10:31:16;;;;;;;13.33;9.27;;;;;;;2.93;58.20;100146.34;5091880;28;20290;-55
2022/01/26 10:33:54;;;;;;;14.00;9.53;;;;;;;2.83;59.89;100152.16;5076191;28;20771;-57
2022/01/26 10:36:21;;;;;;;15.83;10.03;;;;;;;2.75;59.04;100146.94;5072482;28;20732;-57
2022/01/26 10:38:59;;;;;;;19.67;10.20;;;;;;;2.78;59.71;100138.44;5082173;28;20292;-57
2022/01/26 10:41:26;;;;;;;15.27;9.67;;;;;;;2.84;59.16;100139.38;5093430;28;20292;-56
2022/01/26 10:43:55;;;;;;;23.30;10.17;;;;;;;2.77;59.21;100129.88;5093710;28;20207;-58
2022/01/26 10:46:31;;;;;;;18.20;10.17;;;;;;;2.97;59.81;100136.94;5093435;28;20261;-56
2022/01/26 10:49:08;;;;;;;17.30;10.37;;;;;;;3.10;59.20;100132.00;5093796;28;20675;-57
2022/01/26 10:51:52;;;;;;;17.97;10.93;;;;;;;3.19;59.83;100136.34;5093824;28;20649;-56
2022/01/26 10:54:27;;;;;;;24.10;13.23;;;;;;;3.16;59.87;100126.06;5093678;28;20251;-54
2022/01/26 10:56:54;;;;;;;22.37;11.97;;;;;;;3.29;59.47;100125.34;5093633;28;20189;-55
2022/01/26 10:59:21;;;;;;;18.30;11.47;;;;;;;3.37;59.49;100131.44;5093392;28;20195;-56
2022/01/26 11:01:51;;;;;;;14.93;10.17;;;;;;;3.41;59.46;100134.88;5093444;28;20310;-56
2022/01/26 11:04:18;;;;;;;19.60;11.50;;;;;;;3.24;59.69;100127.88;5093196;28;20201;-57
2022/01/26 11:06:51;;;;;;;26.53;11.50;;;;;;;3.40;60.10;100117.75;5093173;28;20305;-56
2022/01/26 11:09:21;;;;;;;23.33;12.37;;;;;;;3.48;59.87;100108.44;5093362;28;20228;-55
2022/01/26 11:12:00;;;;;;;21.73;11.47;;;;;;;3.59;59.85;100112.81;5093281;28;20209;-55
2022/01/26 11:14:38;;;;;;;22.27;12.47;;;;;;;3.77;59.32;100100.97;5093159;28;20293;-55
2022/01/26 11:17:05;;;;;;;20.77;12.47;;;;;;;3.90;59.25;100102.78;5093037;28;20195;-54
2022/01/26 11:19:43;;;;;;;19.33;12.07;;;;;;;4.01;59.04;100096.03;5092937;28;20285;-54
2022/01/26 11:22:14;;;;;;;21.30;12.73;;;;;;;3.98;59.34;100096.00;5092905;28;20286;-55
2022/01/26 11:24:45;;;;;;;18.97;11.77;;;;;;;4.05;59.40;100094.34;5093101;28;20202;-55
2022/01/26 11:27:15;;;;;;;26.13;12.93;;;;;;;3.96;59.86;100095.13;5092861;28;20278;-55
2022/01/26 11:29:46;;;;;;;17.70;11.47;;;;;;;3.96;59.94;100097.69;5093405;28;20198;-58
2022/01/26 11:32:19;;;;;;;21.63;12.40;;;;;;;4.05;59.89;100094.34;5093066;28;20217;-57
2022/01/26 11:34:50;;;;;;;23.80;12.60;;;;;;;3.99;59.88;100077.16;5092684;28;20195;-57
2022/01/26 11:37:19;;;;;;;22.07;12.97;;;;;;;4.07;59.81;100080.63;5092777;28;20199;-57
2022/01/26 11:45:35;;;;;;;25.60;13.17;;;;;;;4.09;60.21;100071.22;5092356;28;20545;-56
2022/01/26 11:48:07;;;;;;;25.83;13.00;;;;;;;4.11;60.47;100072.09;5092280;28;20206;-57
2022/01/26 11:50:35;;;;;;;32.23;14.03;;;;;;;4.24;60.29;100073.03;5092392;28;20195;-55
2022/01/26 11:53:04;;;;;;;37.80;15.90;;;;;;;4.29;60.09;100072.19;5092518;28;20652;-57
2022/01/26 11:55:39;;;;;;;31.50;14.87;;;;;;;4.35;60.52;100066.25;5092299;28;20687;-57
2022/01/26 11:58:14;;;;;;;30.87;14.57;;;;;;;4.54;60.19;100077.47;5075573;28;20223;-56
2022/01/26 12:00:52;;;;;;;23.93;12.17;;;;;;;4.60;61.22;100046.66;5071551;28;20227;-56
2022/01/26 12:03:28;;;;;;;21.20;10.27;;;;;;;4.66;62.60;100056.94;5071652;28;20602;-57
2022/01/26 12:05:57;;;;;;;20.27;9.60;;;;;;;4.79;63.25;100048.44;5071340;28;20314;-56
2022/01/26 12:08:33;;;;;;;13.63;8.23;;;;;;;4.94;62.70;100069.06;5076206;28;20227;-56
2022/01/26 12:11:01;;;;;;;16.07;8.53;;;;;;;4.82;63.65;100051.00;5091110;28;20199;-56
2022/01/26 12:13:31;;;;;;;90.17;11.70;;;;;;;4.85;63.55;100043.31;5092350;28;20250;-57
2022/01/26 12:16:05;;;;;;;87.10;12.93;;;;;;;4.88;63.48;100051.03;5092294;28;20612;-55
2022/01/26 12:18:36;;;;;;;44.10;10.47;;;;;;;4.95;63.20;100049.34;5092490;28;20197;-56
2022/01/26 12:35:23;;;;;;;12.30;8.27;;;;;;;5.00;63.80;100029.63;5092052;28;20191;-57
2022/01/26 12:38:04;;;;;;;11.80;7.67;;;;;;;5.00;63.88;100043.34;5091734;28;20665;-57
2022/01/26 12:43:34;;;;;;;17.57;9.70;;;;;;;5.08;63.64;100041.63;5091794;28;20267;-56
2022/01/26 12:46:02;;;;;;;15.90;10.57;;;;;;;5.11;62.89;100039.06;5091628;28;20307;-56
2022/01/26 12:48:32;;;;;;;22.10;12.00;;;;;;;5.21;62.71;100041.66;5091398;28;20282;-57
2022/01/26 12:50:59;;;;;;;25.03;12.97;;;;;;;5.23;62.39;100045.09;5091545;28;20206;-57
2022/01/26 12:53:28;;;;;;;21.87;13.80;;;;;;;5.17;62.49;100039.94;5091151;28;20192;-57
2022/01/26 12:55:57;;;;;;;30.80;12.93;;;;;;;5.31;61.95;100044.22;5091373;28;20223;-55
2022/01/26 12:58:26;;;;;;;24.03;13.43;;;;;;;5.21;62.32;100036.50;5091346;28;20211;-55
2022/01/26 13:00:53;;;;;;;19.00;11.90;;;;;;;5.23;61.94;100034.78;5091337;28;20206;-55
2022/01/26 13:03:23;;;;;;;19.63;12.10;;;;;;;5.15;62.31;100036.50;5091316;28;20300;-57
2022/01/26 13:05:50;;;;;;;19.83;12.43;;;;;;;5.13;62.54;100038.22;5091135;28;20222;-56